sensor_id;sensor_type;location;lat;lon;timestamp;P1;durP1;ratioP1;P2;durP2;ratioP2
51286;SDS011;37364;46.974;18.916;2023-12-20T00:00:12;378.33;;;66.05;;
51286;SDS011;37364;46.974;18.916;2023-12-20T00:05:16;397.27;;;68.00;;
51286;SDS011;37364;46.974;18.916;2023-12-20T00:07:47;391.02;;;71.25;;
51286;SDS011;37364;46.974;18.916;2023-12-20T00:10:17;396.20;;;68.72;;
51286;SDS011;37364;46.974;18.916;2023-12-20T00:12:47;314.98;;;68.85;;
51286;SDS011;37364;46.974;18.916;2023-12-20T00:15:20;245.63;;;65.55;;
51286;SDS011;37364;46.974;18.916;2023-12-20T00:17:50;439.75;;;63.40;;
51286;SDS011;37364;46.974;18.916;2023-12-20T00:20:21;434.73;;;69.88;;
51286;SDS011;37364;46.974;18.916;2023-12-20T00:22:51;492.73;;;73.43;;
51286;SDS011;37364;46.974;18.916;2023-12-20T00:25:21;503.73;;;71.15;;
51286;SDS011;37364;46.974;18.916;2023-12-20T00:27:48;446.73;;;61.80;;
51286;SDS011;37364;46.974;18.916;2023-12-20T00:30:21;451.42;;;67.97;;
51286;SDS011;37364;46.974;18.916;2023-12-20T00:32:51;502.73;;;65.32;;
51286;SDS011;37364;46.974;18.916;2023-12-20T00:35:22;443.70;;;70.25;;
51286;SDS011;37364;46.974;18.916;2023-12-20T00:37:52;411.33;;;63.50;;
51286;SDS011;37364;46.974;18.916;2023-12-20T00:40:24;357.35;;;65.15;;
51286;SDS011;37364;46.974;18.916;2023-12-20T00:42:54;423.73;;;69.72;;
51286;SDS011;37364;46.974;18.916;2023-12-20T00:45:27;399.80;;;68.40;;
51286;SDS011;37364;46.974;18.916;2023-12-20T00:47:57;367.58;;;67.40;;
51286;SDS011;37364;46.974;18.916;2023-12-20T00:50:28;385.58;;;65.93;;
51286;SDS011;37364;46.974;18.916;2023-12-20T00:52:58;399.60;;;62.17;;
51286;SDS011;37364;46.974;18.916;2023-12-20T00:55:28;428.80;;;64.82;;
51286;SDS011;37364;46.974;18.916;2023-12-20T00:57:58;317.58;;;66.30;;
51286;SDS011;37364;46.974;18.916;2023-12-20T01:00:31;261.67;;;66.28;;
51286;SDS011;37364;46.974;18.916;2023-12-20T01:03:02;360.90;;;69.47;;
51286;SDS011;37364;46.974;18.916;2023-12-20T01:05:33;289.73;;;65.18;;
51286;SDS011;37364;46.974;18.916;2023-12-20T01:08:03;306.77;;;67.22;;
51286;SDS011;37364;46.974;18.916;2023-12-20T01:10:33;409.40;;;58.65;;
51286;SDS011;37364;46.974;18.916;2023-12-20T01:13:03;379.25;;;64.38;;
51286;SDS011;37364;46.974;18.916;2023-12-20T01:15:38;426.92;;;66.15;;
51286;SDS011;37364;46.974;18.916;2023-12-20T01:18:08;342.57;;;62.60;;
51286;SDS011;37364;46.974;18.916;2023-12-20T01:20:38;343.52;;;62.85;;
51286;SDS011;37364;46.974;18.916;2023-12-20T01:23:09;398.40;;;60.22;;
51286;SDS011;37364;46.974;18.916;2023-12-20T01:25:39;310.50;;;62.60;;
51286;SDS011;37364;46.974;18.916;2023-12-20T01:28:09;382.25;;;64.03;;
51286;SDS011;37364;46.974;18.916;2023-12-20T01:30:42;407.75;;;60.67;;
51286;SDS011;37364;46.974;18.916;2023-12-20T01:33:13;318.65;;;62.22;;
51286;SDS011;37364;46.974;18.916;2023-12-20T01:35:43;224.80;;;61.05;;
51286;SDS011;37364;46.974;18.916;2023-12-20T01:38:13;277.88;;;61.65;;
51286;SDS011;37364;46.974;18.916;2023-12-20T01:40:45;302.17;;;63.22;;
51286;SDS011;37364;46.974;18.916;2023-12-20T01:43:15;342.95;;;60.22;;
51286;SDS011;37364;46.974;18.916;2023-12-20T01:45:48;256.95;;;62.22;;
51286;SDS011;37364;46.974;18.916;2023-12-20T01:48:19;174.52;;;58.45;;
51286;SDS011;37364;46.974;18.916;2023-12-20T01:50:50;416.83;;;59.13;;
51286;SDS011;37364;46.974;18.916;2023-12-20T01:53:21;439.75;;;62.35;;
51286;SDS011;37364;46.974;18.916;2023-12-20T01:55:54;232.98;;;58.20;;
51286;SDS011;37364;46.974;18.916;2023-12-20T01:58:25;306.15;;;56.28;;
51286;SDS011;37364;46.974;18.916;2023-12-20T02:00:58;441.42;;;63.35;;
51286;SDS011;37364;46.974;18.916;2023-12-20T02:03:29;408.95;;;58.90;;
51286;SDS011;37364;46.974;18.916;2023-12-20T02:05:59;377.95;;;60.72;;
51286;SDS011;37364;46.974;18.916;2023-12-20T02:08:29;356.70;;;58.45;;
51286;SDS011;37364;46.974;18.916;2023-12-20T02:11:00;397.15;;;63.25;;
51286;SDS011;37364;46.974;18.916;2023-12-20T02:13:30;365.08;;;57.17;;
51286;SDS011;37364;46.974;18.916;2023-12-20T02:16:03;412.27;;;57.22;;
51286;SDS011;37364;46.974;18.916;2023-12-20T02:21:04;364.20;;;55.85;;
51286;SDS011;37364;46.974;18.916;2023-12-20T02:23:37;346.23;;;58.60;;
51286;SDS011;37364;46.974;18.916;2023-12-20T02:26:07;475.47;;;56.80;;
51286;SDS011;37364;46.974;18.916;2023-12-20T02:28:38;359.38;;;54.60;;
51286;SDS011;37364;46.974;18.916;2023-12-20T02:31:08;355.83;;;61.75;;
51286;SDS011;37364;46.974;18.916;2023-12-20T02:33:38;336.00;;;58.40;;
51286;SDS011;37364;46.974;18.916;2023-12-20T02:36:09;400.65;;;60.05;;
51286;SDS011;37364;46.974;18.916;2023-12-20T02:38:41;355.95;;;59.45;;
51286;SDS011;37364;46.974;18.916;2023-12-20T02:41:11;346.80;;;62.10;;
51286;SDS011;37364;46.974;18.916;2023-12-20T02:43:43;237.73;;;58.97;;
51286;SDS011;37364;46.974;18.916;2023-12-20T02:46:13;398.02;;;61.80;;
51286;SDS011;37364;46.974;18.916;2023-12-20T02:48:46;267.02;;;58.47;;
51286;SDS011;37364;46.974;18.916;2023-12-20T02:51:16;380.50;;;58.70;;
51286;SDS011;37364;46.974;18.916;2023-12-20T02:53:49;242.32;;;58.35;;
51286;SDS011;37364;46.974;18.916;2023-12-20T02:56:19;356.73;;;54.33;;
51286;SDS011;37364;46.974;18.916;2023-12-20T02:58:49;271.38;;;52.60;;
51286;SDS011;37364;46.974;18.916;2023-12-20T03:01:19;312.05;;;54.55;;
51286;SDS011;37364;46.974;18.916;2023-12-20T03:03:49;296.33;;;52.65;;
51286;SDS011;37364;46.974;18.916;2023-12-20T03:06:19;187.07;;;51.78;;
51286;SDS011;37364;46.974;18.916;2023-12-20T03:08:52;199.45;;;55.63;;
51286;SDS011;37364;46.974;18.916;2023-12-20T03:11:26;368.50;;;52.58;;
51286;SDS011;37364;46.974;18.916;2023-12-20T03:13:56;216.30;;;55.85;;
51286;SDS011;37364;46.974;18.916;2023-12-20T03:16:26;214.65;;;53.42;;
51286;SDS011;37364;46.974;18.916;2023-12-20T03:19:00;298.30;;;53.92;;
51286;SDS011;37364;46.974;18.916;2023-12-20T03:21:30;350.25;;;56.47;;
51286;SDS011;37364;46.974;18.916;2023-12-20T03:24:03;394.25;;;60.55;;
51286;SDS011;37364;46.974;18.916;2023-12-20T03:26:34;368.67;;;54.88;;
51286;SDS011;37364;46.974;18.916;2023-12-20T03:29:04;392.50;;;55.35;;
51286;SDS011;37364;46.974;18.916;2023-12-20T03:31:34;310.98;;;55.53;;
51286;SDS011;37364;46.974;18.916;2023-12-20T03:34:04;391.95;;;56.33;;
51286;SDS011;37364;46.974;18.916;2023-12-20T03:36:34;409.77;;;55.45;;
51286;SDS011;37364;46.974;18.916;2023-12-20T03:39:08;374.42;;;58.47;;
51286;SDS011;37364;46.974;18.916;2023-12-20T03:41:40;346.70;;;55.97;;
51286;SDS011;37364;46.974;18.916;2023-12-20T03:44:10;372.85;;;62.28;;
51286;SDS011;37364;46.974;18.916;2023-12-20T03:46:40;282.58;;;58.95;;
51286;SDS011;37364;46.974;18.916;2023-12-20T03:49:12;304.85;;;60.28;;
51286;SDS011;37364;46.974;18.916;2023-12-20T03:51:42;379.27;;;66.88;;
51286;SDS011;37364;46.974;18.916;2023-12-20T03:54:14;338.10;;;61.85;;
51286;SDS011;37364;46.974;18.916;2023-12-20T03:56:44;252.82;;;61.58;;
51286;SDS011;37364;46.974;18.916;2023-12-20T03:59:15;356.70;;;66.25;;
51286;SDS011;37364;46.974;18.916;2023-12-20T04:01:45;275.63;;;64.13;;
51286;SDS011;37364;46.974;18.916;2023-12-20T04:04:15;261.60;;;65.88;;
51286;SDS011;37364;46.974;18.916;2023-12-20T04:06:45;390.63;;;66.43;;
51286;SDS011;37364;46.974;18.916;2023-12-20T04:09:18;283.50;;;62.65;;
51286;SDS011;37364;46.974;18.916;2023-12-20T04:11:48;261.00;;;62.75;;
51286;SDS011;37364;46.974;18.916;2023-12-20T04:14:18;346.98;;;58.72;;
51286;SDS011;37364;46.974;18.916;2023-12-20T04:16:48;361.25;;;58.80;;
51286;SDS011;37364;46.974;18.916;2023-12-20T04:19:18;393.80;;;67.40;;
51286;SDS011;37364;46.974;18.916;2023-12-20T04:21:48;277.35;;;59.17;;
51286;SDS011;37364;46.974;18.916;2023-12-20T04:24:21;296.42;;;62.80;;
51286;SDS011;37364;46.974;18.916;2023-12-20T04:26:51;323.23;;;60.97;;
51286;SDS011;37364;46.974;18.916;2023-12-20T04:29:21;313.45;;;63.10;;
51286;SDS011;37364;46.974;18.916;2023-12-20T04:31:51;214.45;;;59.67;;
51286;SDS011;37364;46.974;18.916;2023-12-20T04:34:21;198.32;;;60.42;;
51286;SDS011;37364;46.974;18.916;2023-12-20T04:36:52;173.48;;;60.38;;
51286;SDS011;37364;46.974;18.916;2023-12-20T04:39:26;168.98;;;60.95;;
51286;SDS011;37364;46.974;18.916;2023-12-20T04:41:56;185.70;;;62.30;;
51286;SDS011;37364;46.974;18.916;2023-12-20T04:44:26;165.60;;;62.40;;
51286;SDS011;37364;46.974;18.916;2023-12-20T04:46:56;150.60;;;55.92;;
51286;SDS011;37364;46.974;18.916;2023-12-20T04:49:26;171.10;;;59.60;;
51286;SDS011;37364;46.974;18.916;2023-12-20T04:51:57;170.68;;;57.13;;
51286;SDS011;37364;46.974;18.916;2023-12-20T04:54:29;181.73;;;61.38;;
51286;SDS011;37364;46.974;18.916;2023-12-20T04:56:59;259.75;;;61.50;;
51286;SDS011;37364;46.974;18.916;2023-12-20T04:59:29;230.63;;;57.53;;
51286;SDS011;37364;46.974;18.916;2023-12-20T05:01:59;185.48;;;61.63;;
51286;SDS011;37364;46.974;18.916;2023-12-20T05:04:30;182.77;;;57.97;;
51286;SDS011;37364;46.974;18.916;2023-12-20T05:07:00;199.18;;;62.90;;
51286;SDS011;37364;46.974;18.916;2023-12-20T05:09:34;170.50;;;60.10;;
51286;SDS011;37364;46.974;18.916;2023-12-20T05:12:06;262.80;;;56.05;;
51286;SDS011;37364;46.974;18.916;2023-12-20T05:14:36;280.70;;;59.90;;
51286;SDS011;37364;46.974;18.916;2023-12-20T05:17:06;286.10;;;58.53;;
51286;SDS011;37364;46.974;18.916;2023-12-20T05:19:36;338.55;;;58.58;;
51286;SDS011;37364;46.974;18.916;2023-12-20T05:22:06;464.38;;;60.17;;
51286;SDS011;37364;46.974;18.916;2023-12-20T05:24:39;416.38;;;63.65;;
51286;SDS011;37364;46.974;18.916;2023-12-20T05:27:09;348.10;;;58.70;;
51286;SDS011;37364;46.974;18.916;2023-12-20T05:29:39;313.10;;;59.00;;
51286;SDS011;37364;46.974;18.916;2023-12-20T05:32:09;411.45;;;59.10;;
51286;SDS011;37364;46.974;18.916;2023-12-20T05:34:40;369.77;;;59.80;;
51286;SDS011;37364;46.974;18.916;2023-12-20T05:37:10;480.50;;;64.82;;
51286;SDS011;37364;46.974;18.916;2023-12-20T05:39:42;437.77;;;61.58;;
51286;SDS011;37364;46.974;18.916;2023-12-20T05:42:12;341.48;;;64.47;;
51286;SDS011;37364;46.974;18.916;2023-12-20T05:44:42;397.80;;;63.97;;
51286;SDS011;37364;46.974;18.916;2023-12-20T05:47:13;460.88;;;68.03;;
51286;SDS011;37364;46.974;18.916;2023-12-20T05:49:45;395.67;;;59.40;;
51286;SDS011;37364;46.974;18.916;2023-12-20T05:52:17;513.28;;;62.55;;
51286;SDS011;37364;46.974;18.916;2023-12-20T05:54:49;261.55;;;55.28;;
51286;SDS011;37364;46.974;18.916;2023-12-20T05:57:19;412.35;;;58.63;;
51286;SDS011;37364;46.974;18.916;2023-12-20T05:59:49;383.42;;;58.58;;
51286;SDS011;37364;46.974;18.916;2023-12-20T06:02:20;317.17;;;60.08;;
51286;SDS011;37364;46.974;18.916;2023-12-20T06:04:50;403.92;;;57.88;;
51286;SDS011;37364;46.974;18.916;2023-12-20T06:07:20;229.48;;;59.72;;
51286;SDS011;37364;46.974;18.916;2023-12-20T06:09:53;597.95;;;60.33;;
51286;SDS011;37364;46.974;18.916;2023-12-20T06:12:24;233.68;;;51.92;;
51286;SDS011;37364;46.974;18.916;2023-12-20T06:14:55;219.07;;;55.55;;
51286;SDS011;37364;46.974;18.916;2023-12-20T06:17:25;407.50;;;53.95;;
51286;SDS011;37364;46.974;18.916;2023-12-20T06:19:57;169.50;;;51.65;;
51286;SDS011;37364;46.974;18.916;2023-12-20T06:22:28;247.40;;;53.70;;
51286;SDS011;37364;46.974;18.916;2023-12-20T06:25:00;234.55;;;53.95;;
51286;SDS011;37364;46.974;18.916;2023-12-20T06:27:31;291.70;;;57.00;;
51286;SDS011;37364;46.974;18.916;2023-12-20T06:30:01;465.35;;;54.60;;
51286;SDS011;37364;46.974;18.916;2023-12-20T06:32:31;270.80;;;56.05;;
51286;SDS011;37364;46.974;18.916;2023-12-20T06:35:01;338.27;;;61.22;;
51286;SDS011;37364;46.974;18.916;2023-12-20T06:37:31;465.38;;;56.85;;
51286;SDS011;37364;46.974;18.916;2023-12-20T06:40:05;513.30;;;57.65;;
51286;SDS011;37364;46.974;18.916;2023-12-20T06:42:43;402.48;;;57.70;;
51286;SDS011;37364;46.974;18.916;2023-12-20T06:45:30;268.30;;;61.10;;
51286;SDS011;37364;46.974;18.916;2023-12-20T06:48:01;208.90;;;61.05;;
51286;SDS011;37364;46.974;18.916;2023-12-20T06:50:31;220.10;;;64.03;;
51286;SDS011;37364;46.974;18.916;2023-12-20T06:53:06;372.33;;;86.43;;
51286;SDS011;37364;46.974;18.916;2023-12-20T06:55:39;356.58;;;85.15;;
51286;SDS011;37364;46.974;18.916;2023-12-20T06:58:09;218.85;;;72.10;;
51286;SDS011;37364;46.974;18.916;2023-12-20T07:00:39;244.85;;;63.55;;
51286;SDS011;37364;46.974;18.916;2023-12-20T07:03:13;496.20;;;57.47;;
51286;SDS011;37364;46.974;18.916;2023-12-20T07:05:43;428.00;;;62.58;;
51286;SDS011;37364;46.974;18.916;2023-12-20T07:08:14;437.83;;;58.63;;
51286;SDS011;37364;46.974;18.916;2023-12-20T07:10:46;494.42;;;90.97;;
51286;SDS011;37364;46.974;18.916;2023-12-20T07:13:16;493.23;;;94.18;;
51286;SDS011;37364;46.974;18.916;2023-12-20T07:15:47;484.42;;;114.85;;
51286;SDS011;37364;46.974;18.916;2023-12-20T07:18:17;520.95;;;64.15;;
51286;SDS011;37364;46.974;18.916;2023-12-20T07:20:47;442.85;;;60.20;;
51286;SDS011;37364;46.974;18.916;2023-12-20T07:23:17;360.73;;;54.20;;
51286;SDS011;37364;46.974;18.916;2023-12-20T07:25:51;456.42;;;69.70;;
51286;SDS011;37364;46.974;18.916;2023-12-20T07:28:21;387.65;;;59.05;;
51286;SDS011;37364;46.974;18.916;2023-12-20T07:30:51;410.80;;;71.50;;
51286;SDS011;37364;46.974;18.916;2023-12-20T07:33:22;389.67;;;67.20;;
51286;SDS011;37364;46.974;18.916;2023-12-20T07:35:52;299.20;;;51.17;;
51286;SDS011;37364;46.974;18.916;2023-12-20T07:38:22;297.13;;;48.40;;
51286;SDS011;37364;46.974;18.916;2023-12-20T07:41:04;339.85;;;52.10;;
51286;SDS011;37364;46.974;18.916;2023-12-20T07:43:34;345.43;;;49.77;;
51286;SDS011;37364;46.974;18.916;2023-12-20T07:46:05;358.60;;;50.72;;
51286;SDS011;37364;46.974;18.916;2023-12-20T07:48:35;294.25;;;52.03;;
51286;SDS011;37364;46.974;18.916;2023-12-20T07:53:39;261.60;;;58.13;;
51286;SDS011;37364;46.974;18.916;2023-12-20T07:56:17;329.02;;;58.53;;
51286;SDS011;37364;46.974;18.916;2023-12-20T07:58:49;341.15;;;68.90;;
51286;SDS011;37364;46.974;18.916;2023-12-20T08:01:22;307.98;;;54.55;;
51286;SDS011;37364;46.974;18.916;2023-12-20T08:03:52;263.65;;;61.95;;
51286;SDS011;37364;46.974;18.916;2023-12-20T08:06:24;233.02;;;55.15;;
51286;SDS011;37364;46.974;18.916;2023-12-20T08:08:54;289.35;;;62.67;;
51286;SDS011;37364;46.974;18.916;2023-12-20T08:11:37;217.27;;;56.65;;
51286;SDS011;37364;46.974;18.916;2023-12-20T08:14:07;301.00;;;61.97;;
51286;SDS011;37364;46.974;18.916;2023-12-20T08:16:37;266.27;;;77.13;;
51286;SDS011;37364;46.974;18.916;2023-12-20T08:19:07;236.65;;;64.10;;
51286;SDS011;37364;46.974;18.916;2023-12-20T08:21:37;310.75;;;57.17;;
51286;SDS011;37364;46.974;18.916;2023-12-20T08:24:08;285.95;;;53.00;;
51286;SDS011;37364;46.974;18.916;2023-12-20T08:26:41;380.35;;;52.33;;
51286;SDS011;37364;46.974;18.916;2023-12-20T08:29:12;314.98;;;55.38;;
51286;SDS011;37364;46.974;18.916;2023-12-20T08:31:51;169.10;;;49.65;;
51286;SDS011;37364;46.974;18.916;2023-12-20T08:34:22;326.77;;;59.30;;
51286;SDS011;37364;46.974;18.916;2023-12-20T08:36:53;259.67;;;59.45;;
51286;SDS011;37364;46.974;18.916;2023-12-20T08:39:29;185.02;;;56.10;;
51286;SDS011;37364;46.974;18.916;2023-12-20T08:42:03;285.02;;;60.17;;
51286;SDS011;37364;46.974;18.916;2023-12-20T08:44:39;247.55;;;60.83;;
51286;SDS011;37364;46.974;18.916;2023-12-20T08:47:18;295.25;;;66.78;;
51286;SDS011;37364;46.974;18.916;2023-12-20T08:49:51;270.63;;;59.33;;
51286;SDS011;37364;46.974;18.916;2023-12-20T08:52:23;362.50;;;63.45;;
51286;SDS011;37364;46.974;18.916;2023-12-20T08:54:59;194.68;;;61.30;;
51286;SDS011;37364;46.974;18.916;2023-12-20T08:57:42;224.80;;;57.95;;
51286;SDS011;37364;46.974;18.916;2023-12-20T09:00:16;210.05;;;53.80;;
51286;SDS011;37364;46.974;18.916;2023-12-20T09:02:59;203.48;;;48.45;;
51286;SDS011;37364;46.974;18.916;2023-12-20T09:05:30;179.38;;;44.25;;
51286;SDS011;37364;46.974;18.916;2023-12-20T09:08:09;179.50;;;43.10;;
51286;SDS011;37364;46.974;18.916;2023-12-20T09:10:42;154.90;;;44.70;;
51286;SDS011;37364;46.974;18.916;2023-12-20T09:13:15;146.27;;;49.15;;
51286;SDS011;37364;46.974;18.916;2023-12-20T09:15:45;175.25;;;50.30;;
51286;SDS011;37364;46.974;18.916;2023-12-20T09:18:27;152.20;;;52.80;;
51286;SDS011;37364;46.974;18.916;2023-12-20T09:21:00;128.35;;;44.78;;
51286;SDS011;37364;46.974;18.916;2023-12-20T09:23:39;134.27;;;45.47;;
51286;SDS011;37364;46.974;18.916;2023-12-20T09:26:18;195.52;;;50.92;;
51286;SDS011;37364;46.974;18.916;2023-12-20T09:28:50;182.68;;;44.85;;
51286;SDS011;37364;46.974;18.916;2023-12-20T09:31:43;167.43;;;47.72;;
51286;SDS011;37364;46.974;18.916;2023-12-20T09:34:28;160.45;;;46.22;;
51286;SDS011;37364;46.974;18.916;2023-12-20T09:37:04;145.83;;;50.63;;
51286;SDS011;37364;46.974;18.916;2023-12-20T09:39:37;169.10;;;51.88;;
51286;SDS011;37364;46.974;18.916;2023-12-20T09:42:07;152.18;;;48.70;;
51286;SDS011;37364;46.974;18.916;2023-12-20T09:44:43;150.38;;;50.17;;
51286;SDS011;37364;46.974;18.916;2023-12-20T09:47:13;183.80;;;52.45;;
51286;SDS011;37364;46.974;18.916;2023-12-20T09:49:55;182.93;;;51.53;;
51286;SDS011;37364;46.974;18.916;2023-12-20T09:52:26;151.60;;;51.85;;
51286;SDS011;37364;46.974;18.916;2023-12-20T09:55:02;173.85;;;52.70;;
51286;SDS011;37364;46.974;18.916;2023-12-20T09:57:39;139.70;;;51.08;;
51286;SDS011;37364;46.974;18.916;2023-12-20T10:00:16;139.95;;;53.28;;
51286;SDS011;37364;46.974;18.916;2023-12-20T10:03:05;140.80;;;48.95;;
51286;SDS011;37364;46.974;18.916;2023-12-20T10:05:36;140.90;;;49.38;;
51286;SDS011;37364;46.974;18.916;2023-12-20T10:08:12;171.90;;;56.92;;
51286;SDS011;37364;46.974;18.916;2023-12-20T10:10:48;163.48;;;59.08;;
51286;SDS011;37364;46.974;18.916;2023-12-20T10:13:22;163.20;;;58.45;;
51286;SDS011;37364;46.974;18.916;2023-12-20T10:15:55;143.13;;;48.10;;
51286;SDS011;37364;46.974;18.916;2023-12-20T10:18:34;124.47;;;45.90;;
51286;SDS011;37364;46.974;18.916;2023-12-20T10:21:11;132.55;;;46.78;;
51286;SDS011;37364;46.974;18.916;2023-12-20T10:23:41;126.95;;;48.20;;
51286;SDS011;37364;46.974;18.916;2023-12-20T10:26:15;129.60;;;49.85;;
51286;SDS011;37364;46.974;18.916;2023-12-20T10:28:50;126.38;;;47.33;;
51286;SDS011;37364;46.974;18.916;2023-12-20T10:31:30;130.43;;;57.08;;
51286;SDS011;37364;46.974;18.916;2023-12-20T10:34:05;159.18;;;66.68;;
51286;SDS011;37364;46.974;18.916;2023-12-20T10:36:59;136.85;;;56.88;;
51286;SDS011;37364;46.974;18.916;2023-12-20T10:39:41;140.90;;;55.60;;
51286;SDS011;37364;46.974;18.916;2023-12-20T10:42:21;152.70;;;59.75;;
51286;SDS011;37364;46.974;18.916;2023-12-20T10:45:06;161.27;;;65.28;;
51286;SDS011;37364;46.974;18.916;2023-12-20T10:50:19;160.27;;;53.35;;
51286;SDS011;37364;46.974;18.916;2023-12-20T10:52:52;212.50;;;82.43;;
51286;SDS011;37364;46.974;18.916;2023-12-20T10:55:30;186.95;;;69.78;;
51286;SDS011;37364;46.974;18.916;2023-12-20T10:58:06;173.32;;;64.60;;
51286;SDS011;37364;46.974;18.916;2023-12-20T11:00:39;284.23;;;140.93;;
51286;SDS011;37364;46.974;18.916;2023-12-20T11:03:13;176.55;;;80.50;;
51286;SDS011;37364;46.974;18.916;2023-12-20T11:08:50;155.18;;;57.67;;
51286;SDS011;37364;46.974;18.916;2023-12-20T11:11:35;165.43;;;64.50;;
51286;SDS011;37364;46.974;18.916;2023-12-20T11:14:14;167.00;;;72.53;;
51286;SDS011;37364;46.974;18.916;2023-12-20T11:16:48;223.77;;;106.75;;
51286;SDS011;37364;46.974;18.916;2023-12-20T11:19:38;142.45;;;60.35;;
51286;SDS011;37364;46.974;18.916;2023-12-20T11:22:32;145.93;;;61.08;;
51286;SDS011;37364;46.974;18.916;2023-12-20T11:25:08;152.95;;;62.13;;
51286;SDS011;37364;46.974;18.916;2023-12-20T11:27:41;130.05;;;54.65;;
51286;SDS011;37364;46.974;18.916;2023-12-20T11:30:40;147.85;;;60.53;;
51286;SDS011;37364;46.974;18.916;2023-12-20T11:33:36;162.82;;;64.80;;
51286;SDS011;37364;46.974;18.916;2023-12-20T11:36:16;160.07;;;61.58;;
51286;SDS011;37364;46.974;18.916;2023-12-20T11:38:55;142.02;;;61.22;;
51286;SDS011;37364;46.974;18.916;2023-12-20T11:41:26;143.15;;;58.65;;
51286;SDS011;37364;46.974;18.916;2023-12-20T11:44:01;128.13;;;53.90;;
51286;SDS011;37364;46.974;18.916;2023-12-20T11:46:40;126.82;;;55.55;;
51286;SDS011;37364;46.974;18.916;2023-12-20T11:52:04;122.18;;;53.35;;
51286;SDS011;37364;46.974;18.916;2023-12-20T11:54:41;122.70;;;57.72;;
51286;SDS011;37364;46.974;18.916;2023-12-20T11:57:14;182.67;;;97.37;;
51286;SDS011;37364;46.974;18.916;2023-12-20T11:59:51;104.95;;;53.53;;
51286;SDS011;37364;46.974;18.916;2023-12-20T12:02:22;94.20;;;48.22;;
51286;SDS011;37364;46.974;18.916;2023-12-20T12:04:59;86.50;;;45.55;;
51286;SDS011;37364;46.974;18.916;2023-12-20T12:07:46;79.93;;;47.22;;
51286;SDS011;37364;46.974;18.916;2023-12-20T12:10:16;76.80;;;44.28;;
51286;SDS011;37364;46.974;18.916;2023-12-20T12:12:58;76.13;;;37.75;;
51286;SDS011;37364;46.974;18.916;2023-12-20T12:15:31;85.72;;;46.67;;
51286;SDS011;37364;46.974;18.916;2023-12-20T12:18:02;57.15;;;34.60;;
51286;SDS011;37364;46.974;18.916;2023-12-20T12:20:35;88.88;;;52.72;;
51286;SDS011;37364;46.974;18.916;2023-12-20T12:23:24;43.88;;;28.10;;
51286;SDS011;37364;46.974;18.916;2023-12-20T12:25:55;42.78;;;24.88;;
51286;SDS011;37364;46.974;18.916;2023-12-20T12:28:48;70.97;;;41.73;;
51286;SDS011;37364;46.974;18.916;2023-12-20T12:31:29;37.00;;;23.08;;
51286;SDS011;37364;46.974;18.916;2023-12-20T12:34:05;31.10;;;18.63;;
51286;SDS011;37364;46.974;18.916;2023-12-20T12:36:39;27.98;;;18.42;;
51286;SDS011;37364;46.974;18.916;2023-12-20T12:39:18;37.05;;;21.30;;
51286;SDS011;37364;46.974;18.916;2023-12-20T12:42:15;29.05;;;20.73;;
51286;SDS011;37364;46.974;18.916;2023-12-20T12:44:45;117.47;;;58.08;;
51286;SDS011;37364;46.974;18.916;2023-12-20T12:47:19;51.58;;;30.67;;
51286;SDS011;37364;46.974;18.916;2023-12-20T12:49:52;92.05;;;50.92;;
51286;SDS011;37364;46.974;18.916;2023-12-20T12:52:23;162.70;;;88.28;;
51286;SDS011;37364;46.974;18.916;2023-12-20T12:55:02;106.60;;;57.35;;
51286;SDS011;37364;46.974;18.916;2023-12-20T12:57:40;59.35;;;36.30;;
51286;SDS011;37364;46.974;18.916;2023-12-20T13:00:19;82.95;;;55.22;;
51286;SDS011;37364;46.974;18.916;2023-12-20T13:02:51;43.78;;;29.10;;
51286;SDS011;37364;46.974;18.916;2023-12-20T13:05:27;68.85;;;44.58;;
51286;SDS011;37364;46.974;18.916;2023-12-20T13:08:14;36.03;;;26.23;;
51286;SDS011;37364;46.974;18.916;2023-12-20T13:10:47;49.15;;;30.40;;
51286;SDS011;37364;46.974;18.916;2023-12-20T13:13:17;96.50;;;65.70;;
51286;SDS011;37364;46.974;18.916;2023-12-20T13:15:59;36.50;;;24.58;;
51286;SDS011;37364;46.974;18.916;2023-12-20T13:18:39;41.28;;;27.60;;
51286;SDS011;37364;46.974;18.916;2023-12-20T13:21:15;53.40;;;32.25;;
51286;SDS011;37364;46.974;18.916;2023-12-20T13:23:47;76.80;;;39.33;;
51286;SDS011;37364;46.974;18.916;2023-12-20T13:26:29;63.42;;;34.85;;
51286;SDS011;37364;46.974;18.916;2023-12-20T13:29:02;72.63;;;35.10;;
51286;SDS011;37364;46.974;18.916;2023-12-20T13:31:32;45.35;;;26.58;;
51286;SDS011;37364;46.974;18.916;2023-12-20T13:34:11;46.55;;;27.17;;
51286;SDS011;37364;46.974;18.916;2023-12-20T13:36:53;38.28;;;22.67;;
51286;SDS011;37364;46.974;18.916;2023-12-20T13:39:29;46.05;;;23.52;;
51286;SDS011;37364;46.974;18.916;2023-12-20T13:42:14;34.72;;;17.23;;
51286;SDS011;37364;46.974;18.916;2023-12-20T13:44:44;18.58;;;11.38;;
51286;SDS011;37364;46.974;18.916;2023-12-20T13:47:14;41.13;;;18.27;;
51286;SDS011;37364;46.974;18.916;2023-12-20T13:49:52;24.13;;;14.02;;
51286;SDS011;37364;46.974;18.916;2023-12-20T13:52:32;35.25;;;17.80;;
51286;SDS011;37364;46.974;18.916;2023-12-20T13:55:05;19.85;;;11.02;;
51286;SDS011;37364;46.974;18.916;2023-12-20T14:00:35;23.40;;;13.10;;
51286;SDS011;37364;46.974;18.916;2023-12-20T14:03:12;18.13;;;11.75;;
51286;SDS011;37364;46.974;18.916;2023-12-20T14:05:42;11.57;;;8.00;;
51286;SDS011;37364;46.974;18.916;2023-12-20T14:08:18;16.25;;;10.02;;
51286;SDS011;37364;46.974;18.916;2023-12-20T14:11:00;38.97;;;21.75;;
51286;SDS011;37364;46.974;18.916;2023-12-20T14:13:33;26.60;;;16.33;;
51286;SDS011;37364;46.974;18.916;2023-12-20T14:16:06;22.45;;;13.05;;
51286;SDS011;37364;46.974;18.916;2023-12-20T14:18:38;14.50;;;8.68;;
51286;SDS011;37364;46.974;18.916;2023-12-20T14:21:26;15.50;;;9.02;;
51286;SDS011;37364;46.974;18.916;2023-12-20T14:24:05;9.10;;;6.75;;
51286;SDS011;37364;46.974;18.916;2023-12-20T14:26:48;10.65;;;7.40;;
51286;SDS011;37364;46.974;18.916;2023-12-20T14:29:20;13.90;;;8.80;;
51286;SDS011;37364;46.974;18.916;2023-12-20T14:32:06;14.98;;;9.57;;
51286;SDS011;37364;46.974;18.916;2023-12-20T14:34:42;16.08;;;9.68;;
51286;SDS011;37364;46.974;18.916;2023-12-20T14:37:37;18.52;;;9.85;;
51286;SDS011;37364;46.974;18.916;2023-12-20T14:40:19;12.05;;;8.27;;
51286;SDS011;37364;46.974;18.916;2023-12-20T14:42:49;14.02;;;10.88;;
51286;SDS011;37364;46.974;18.916;2023-12-20T14:45:43;19.65;;;15.10;;
51286;SDS011;37364;46.974;18.916;2023-12-20T14:48:31;34.10;;;22.70;;
51286;SDS011;37364;46.974;18.916;2023-12-20T14:51:13;14.35;;;9.52;;
51286;SDS011;37364;46.974;18.916;2023-12-20T14:53:54;21.63;;;14.65;;